createdAt,value
2017-09-09T00:00:19.747Z,88.71
2017-09-09T00:02:48.981Z,88.58
2017-09-09T00:05:17.463Z,88.48
2017-09-09T00:07:45.944Z,88.13
2017-09-09T00:10:14.392Z,87.39
2017-09-09T00:12:43.623Z,86.88
2017-09-09T00:15:12.107Z,86.44
2017-09-09T00:17:40.592Z,86.68
2017-09-09T00:20:09.037Z,86.38
2017-09-09T00:22:38.237Z,86.92
2017-09-09T00:25:07.451Z,86.78
2017-09-09T00:27:36.639Z,86.69
2017-09-09T00:30:05.857Z,86.78
2017-09-09T00:32:34.350Z,86.98
2017-09-09T00:35:02.834Z,86.79
2017-09-09T00:37:31.266Z,86.71
2017-09-09T00:39:59.712Z,86.04
2017-09-09T00:42:28.177Z,86.16
2017-09-09T00:44:56.660Z,86.60
2017-09-09T00:47:25.082Z,85.60
2017-09-09T00:49:53.621Z,86.10
2017-09-09T00:52:22.044Z,85.71
2017-09-09T00:54:50.493Z,85.32
2017-09-09T00:57:18.925Z,85.36
2017-09-09T00:59:48.150Z,85.34
2017-09-09T01:02:16.639Z,84.63
2017-09-09T01:04:45.084Z,84.28
2017-09-09T01:07:13.503Z,84.09
2017-09-09T01:09:41.935Z,83.73
2017-09-09T01:12:10.355Z,83.86
2017-09-09T01:14:38.803Z,83.98
2017-09-09T01:17:07.228Z,84.10
2017-09-09T01:19:35.667Z,84.02
2017-09-09T01:22:04.087Z,84.47
2017-09-09T01:24:32.567Z,84.48
2017-09-09T01:27:01.052Z,84.66
2017-09-09T01:29:29.476Z,85.14
2017-09-09T01:31:57.920Z,84.69
2017-09-09T01:34:26.390Z,84.92
2017-09-09T01:36:54.871Z,85.13
2017-09-09T01:39:23.291Z,84.62
2017-09-09T01:41:51.836Z,84.67
2017-09-09T01:44:20.323Z,84.77
2017-09-09T01:46:48.804Z,84.56
2017-09-09T01:49:17.283Z,84.71
2017-09-09T01:51:45.767Z,84.66
2017-09-09T01:54:14.249Z,84.29
2017-09-09T01:56:42.699Z,84.39
2017-09-09T01:59:11.931Z,84.46
2017-09-09T02:01:40.379Z,84.48
2017-09-09T02:04:09.572Z,84.30
2017-09-09T02:06:38.091Z,84.27
2017-09-09T02:09:06.519Z,84.31
2017-09-09T02:11:34.964Z,84.15
2017-09-09T02:14:03.395Z,84.65
2017-09-09T02:16:31.843Z,84.12
2017-09-09T02:19:00.299Z,84.33
2017-09-09T02:21:28.778Z,84.30
2017-09-09T02:23:57.199Z,84.03
2017-09-09T02:26:27.320Z,84.33
2017-09-09T02:28:55.736Z,84.23
2017-09-09T02:31:24.963Z,84.33
2017-09-09T02:33:53.395Z,84.72
2017-09-09T02:36:21.923Z,84.10
2017-09-09T02:38:50.343Z,84.14
2017-09-09T02:41:18.787Z,83.96
2017-09-09T02:43:47.268Z,83.98
2017-09-09T02:46:15.758Z,83.98
2017-09-09T02:48:44.175Z,83.99
2017-09-09T02:51:12.711Z,84.04
2017-09-09T02:53:41.128Z,84.05
2017-09-09T02:56:09.681Z,83.59
2017-09-09T02:58:38.160Z,83.68
2017-09-09T03:01:06.648Z,83.14
2017-09-09T03:03:35.139Z,83.03
2017-09-09T03:06:03.607Z,82.59
2017-09-09T03:08:32.092Z,82.55
2017-09-09T03:11:00.535Z,82.90
2017-09-09T03:13:29.051Z,82.65
2017-09-09T03:15:57.493Z,82.54
2017-09-09T03:18:25.911Z,82.65
2017-09-09T03:20:54.395Z,82.40
2017-09-09T03:23:22.815Z,82.38
2017-09-09T03:25:51.259Z,81.88
2017-09-09T03:28:19.676Z,82.41
2017-09-09T03:30:48.120Z,82.55
2017-09-09T03:33:16.599Z,82.15
2017-09-09T03:35:45.083Z,82.44
2017-09-09T03:38:13.524Z,82.17
2017-09-09T03:40:42.052Z,82.08
2017-09-09T03:43:10.531Z,82.46
2017-09-09T03:45:39.012Z,82.26
2017-09-09T03:48:07.495Z,81.99
2017-09-09T03:50:35.918Z,81.78
2017-09-09T03:53:04.360Z,81.98
2017-09-09T03:55:32.839Z,82.08
2017-09-09T03:58:01.315Z,82.30
2017-09-09T04:00:29.732Z,81.79
2017-09-09T04:02:58.172Z,81.97
2017-09-09T04:05:27.355Z,82.55
2017-09-09T04:07:56.556Z,81.96
2017-09-09T04:10:25.775Z,82.01
2017-09-09T04:12:54.258Z,82.01
2017-09-09T04:15:22.739Z,82.16
2017-09-09T04:17:51.184Z,83.11
2017-09-09T04:20:19.599Z,81.97
2017-09-09T04:22:48.073Z,81.91
2017-09-09T04:25:17.256Z,81.96
2017-09-09T04:27:46.488Z,81.86
2017-09-09T04:30:14.968Z,81.80
2017-09-09T04:32:43.443Z,81.86
2017-09-09T04:35:11.873Z,82.15
2017-09-09T04:37:40.411Z,81.49
2017-09-09T04:40:08.896Z,81.40
2017-09-09T04:42:37.340Z,81.34
2017-09-09T04:45:06.532Z,81.44
2017-09-09T04:47:34.962Z,81.29
2017-09-09T04:50:03.387Z,81.35
2017-09-09T04:52:31.822Z,81.37
2017-09-09T04:55:00.295Z,80.88
2017-09-09T04:57:28.784Z,81.74
2017-09-09T04:59:57.209Z,81.06
2017-09-09T05:02:25.653Z,80.62
2017-09-09T05:04:54.115Z,80.80
2017-09-09T05:07:23.323Z,80.80
2017-09-09T05:09:51.739Z,81.26
2017-09-09T05:12:20.179Z,81.02
2017-09-09T05:14:48.603Z,80.71
2017-09-09T05:17:17.039Z,80.99
2017-09-09T05:19:45.522Z,81.16
2017-09-09T05:22:14.003Z,81.99
2017-09-09T05:24:42.427Z,81.32
2017-09-09T05:27:10.883Z,81.19
2017-09-09T05:29:39.365Z,81.15
2017-09-09T05:32:07.787Z,80.61
2017-09-09T05:34:36.320Z,81.49
2017-09-09T05:37:04.762Z,80.55
2017-09-09T05:39:34.000Z,81.32
2017-09-09T05:42:02.429Z,80.86
2017-09-09T05:44:31.665Z,80.73
2017-09-09T05:47:00.886Z,80.84
2017-09-09T05:49:29.325Z,80.42
2017-09-09T05:51:58.508Z,80.04
2017-09-09T05:54:26.943Z,79.86
2017-09-09T05:56:55.364Z,79.80
2017-09-09T05:59:23.905Z,79.77
2017-09-09T06:01:52.383Z,80.30
2017-09-09T06:04:20.823Z,80.48
2017-09-09T06:06:49.241Z,80.29
2017-09-09T06:09:17.732Z,79.87
2017-09-09T06:11:46.212Z,80.56
2017-09-09T06:14:14.664Z,80.17
2017-09-09T06:16:43.893Z,80.50
2017-09-09T06:19:12.371Z,81.01
2017-09-09T06:21:40.789Z,81.00
2017-09-09T06:24:09.346Z,81.37
2017-09-09T06:26:37.778Z,81.28
2017-09-09T06:29:06.295Z,81.63
2017-09-09T06:31:34.779Z,82.42
2017-09-09T06:34:03.261Z,82.24
2017-09-09T06:36:31.682Z,81.99
2017-09-09T06:39:00.128Z,82.09
2017-09-09T06:41:28.552Z,81.90
2017-09-09T06:43:57.091Z,81.96
2017-09-09T06:46:25.575Z,81.89
2017-09-09T06:48:54.016Z,82.35
2017-09-09T06:51:23.208Z,81.67
2017-09-09T06:53:51.730Z,81.50
2017-09-09T06:56:20.147Z,81.47
2017-09-09T06:58:48.695Z,81.30
2017-09-09T07:01:17.175Z,81.68
2017-09-09T07:03:45.659Z,81.43
2017-09-09T07:06:14.139Z,81.14
2017-09-09T07:08:42.580Z,81.48
2017-09-09T07:11:11.104Z,81.76
2017-09-09T07:13:39.596Z,80.84
2017-09-09T07:16:08.016Z,80.99
2017-09-09T07:18:36.464Z,80.07
2017-09-09T07:21:04.925Z,80.75
2017-09-09T07:23:33.508Z,80.97
2017-09-09T07:26:02.715Z,80.52
2017-09-09T07:28:31.160Z,80.93
2017-09-09T07:31:00.395Z,81.39
2017-09-09T07:33:28.813Z,80.79
2017-09-09T07:35:57.364Z,80.51
2017-09-09T07:38:25.839Z,80.03
2017-09-09T07:40:54.324Z,79.52
2017-09-09T07:43:22.803Z,79.96
2017-09-09T07:45:51.288Z,79.87
2017-09-09T07:48:19.768Z,79.72
2017-09-09T07:50:48.210Z,80.07
2017-09-09T07:53:16.633Z,79.34
2017-09-09T07:55:45.072Z,80.00
2017-09-09T07:58:13.595Z,78.86
2017-09-09T08:00:42.031Z,79.17
2017-09-09T08:03:10.457Z,79.68
2017-09-09T08:05:38.905Z,79.07
2017-09-09T08:08:08.100Z,79.40
2017-09-09T08:10:36.619Z,79.21
2017-09-09T08:13:05.100Z,78.80
2017-09-09T08:15:33.585Z,79.69
2017-09-09T08:18:02.008Z,79.41
2017-09-09T08:20:30.451Z,79.30
2017-09-09T08:22:58.883Z,79.27
2017-09-09T08:25:27.320Z,79.76
2017-09-09T08:27:55.795Z,79.83
2017-09-09T08:30:24.243Z,79.10
2017-09-09T08:32:53.435Z,78.61
2017-09-09T08:35:22.675Z,79.16
2017-09-09T08:37:51.151Z,78.70
2017-09-09T08:40:19.591Z,77.85
2017-09-09T08:42:48.011Z,78.34
2017-09-09T08:45:16.495Z,78.23
2017-09-09T08:47:44.976Z,78.26
2017-09-09T08:50:13.460Z,78.82
2017-09-09T08:52:41.883Z,77.54
2017-09-09T08:55:10.428Z,77.27
2017-09-09T08:57:38.847Z,78.05
2017-09-09T09:00:07.383Z,77.17
2017-09-09T09:02:35.873Z,77.29
2017-09-09T09:05:04.311Z,77.16
2017-09-09T09:07:32.732Z,77.66
2017-09-09T09:10:01.216Z,76.54
2017-09-09T09:12:29.639Z,77.00
2017-09-09T09:14:58.084Z,76.58
2017-09-09T09:17:26.572Z,76.56
2017-09-09T09:19:55.037Z,76.89
2017-09-09T09:22:23.523Z,77.62
2017-09-09T09:24:52.009Z,77.44
2017-09-09T09:27:20.436Z,78.01
2017-09-09T09:29:48.964Z,78.05
2017-09-09T09:32:17.450Z,78.00
2017-09-09T09:34:45.927Z,78.21
2017-09-09T09:37:14.368Z,77.95
2017-09-09T09:39:42.787Z,77.50
2017-09-09T09:42:11.231Z,77.38
2017-09-09T09:44:39.656Z,77.69
2017-09-09T09:47:08.094Z,77.51
2017-09-09T09:49:36.520Z,78.09
2017-09-09T09:52:04.959Z,78.30
2017-09-09T09:54:33.375Z,78.46
2017-09-09T09:57:01.820Z,78.37
2017-09-09T09:59:30.235Z,79.66
2017-09-09T10:01:58.671Z,79.34
2017-09-09T10:04:27.198Z,79.69
2017-09-09T10:06:55.683Z,79.20
2017-09-09T10:09:24.167Z,78.75
2017-09-09T10:11:52.607Z,79.25
2017-09-09T10:14:21.027Z,79.02
2017-09-09T10:16:49.471Z,79.56
2017-09-09T10:19:17.988Z,80.42
2017-09-09T10:21:46.432Z,80.92
2017-09-09T10:24:17.095Z,80.79
2017-09-09T10:26:46.308Z,81.43
2017-09-09T10:29:14.724Z,80.68
2017-09-09T10:31:43.267Z,80.96
2017-09-09T10:34:11.690Z,80.92
2017-09-09T10:36:40.231Z,80.84
2017-09-09T10:39:08.711Z,80.45
2017-09-09T10:41:37.150Z,80.35
2017-09-09T10:44:05.568Z,80.38
2017-09-09T10:46:34.013Z,80.63
2017-09-09T10:49:02.434Z,81.03
2017-09-09T10:51:30.880Z,80.99
2017-09-09T10:53:59.295Z,80.83
2017-09-09T10:56:27.731Z,80.54
2017-09-09T10:58:56.268Z,80.57
2017-09-09T11:01:24.747Z,80.66
2017-09-09T11:03:53.233Z,79.78
2017-09-09T11:06:21.675Z,79.46
2017-09-09T11:08:50.854Z,79.72
2017-09-09T11:11:19.294Z,80.65
2017-09-09T11:13:47.767Z,82.09
2017-09-09T11:16:16.247Z,82.34
2017-09-09T11:18:44.988Z,82.32
2017-09-09T11:21:13.520Z,82.65
2017-09-09T11:23:41.955Z,82.54
2017-09-09T11:26:10.484Z,82.49
2017-09-09T11:28:38.971Z,82.75
2017-09-09T11:31:07.447Z,81.76
2017-09-09T11:33:35.931Z,81.30
2017-09-09T11:36:04.352Z,81.62
2017-09-09T11:38:32.798Z,82.05
2017-09-09T11:41:01.221Z,81.97
2017-09-09T11:43:29.663Z,82.74
2017-09-09T11:45:58.087Z,82.89
2017-09-09T11:48:26.527Z,82.70
2017-09-09T11:50:54.940Z,83.49
2017-09-09T11:53:23.488Z,83.00
2017-09-09T11:55:51.963Z,83.22
2017-09-09T11:58:20.403Z,81.96
2017-09-09T12:00:48.823Z,82.02
2017-09-09T12:03:17.260Z,81.02
2017-09-09T12:05:45.683Z,80.22
2017-09-09T12:08:14.172Z,79.79
2017-09-09T12:10:42.658Z,79.31
2017-09-09T12:13:11.140Z,78.72
2017-09-09T12:15:39.613Z,78.54
2017-09-09T12:18:08.056Z,78.29
2017-09-09T12:20:36.481Z,77.54
2017-09-09T12:23:04.919Z,76.73
2017-09-09T12:25:33.439Z,75.68
2017-09-09T12:28:01.920Z,75.61
2017-09-09T12:30:30.406Z,75.35
2017-09-09T12:32:58.887Z,74.78
2017-09-09T12:35:27.328Z,75.02
2017-09-09T12:37:56.581Z,74.47
2017-09-09T12:40:25.051Z,74.30
2017-09-09T12:42:53.476Z,74.13
2017-09-09T12:45:22.013Z,72.86
2017-09-09T12:47:50.428Z,72.23
2017-09-09T12:50:18.867Z,71.12
2017-09-09T12:52:47.288Z,71.10
2017-09-09T12:55:15.827Z,71.07
2017-09-09T12:57:45.035Z,70.78
2017-09-09T13:00:13.519Z,70.59
2017-09-09T13:02:42.003Z,70.67
2017-09-09T13:05:10.443Z,70.60
2017-09-09T13:07:39.632Z,70.34
2017-09-09T13:10:08.168Z,69.92
2017-09-09T13:12:36.643Z,69.66
2017-09-09T13:15:05.132Z,69.05
2017-09-09T13:17:33.618Z,67.63
2017-09-09T13:20:02.100Z,67.93
2017-09-09T13:22:30.571Z,67.37
2017-09-09T13:24:59.060Z,67.58
2017-09-09T13:27:27.544Z,67.88
2017-09-09T13:29:56.019Z,68.00
2017-09-09T13:32:24.501Z,69.11
2017-09-09T13:34:52.984Z,68.86
2017-09-09T13:37:21.412Z,69.42
2017-09-09T13:39:49.856Z,69.02
2017-09-09T13:42:18.271Z,69.70
2017-09-09T13:44:46.731Z,69.09
2017-09-09T13:47:15.187Z,68.93
2017-09-09T13:49:43.671Z,68.71
2017-09-09T13:52:12.104Z,69.27
2017-09-09T13:54:40.524Z,69.07
2017-09-09T13:57:09.834Z,69.77
2017-09-09T13:59:38.260Z,70.11
2017-09-09T14:02:06.800Z,71.04
2017-09-09T14:04:35.279Z,72.15
2017-09-09T14:07:03.762Z,73.17
2017-09-09T14:09:32.180Z,74.83
2017-09-09T14:12:00.730Z,77.25
2017-09-09T14:14:29.148Z,77.57
2017-09-09T14:16:57.583Z,77.96
2017-09-09T14:19:26.003Z,78.20
2017-09-09T14:21:54.441Z,78.31
2017-09-09T14:24:22.869Z,77.93
2017-09-09T14:26:51.316Z,77.54
2017-09-09T14:29:19.731Z,77.65
2017-09-09T14:31:48.272Z,77.78
2017-09-09T14:34:16.690Z,77.69
2017-09-09T14:36:45.131Z,77.44
2017-09-09T14:39:13.619Z,78.09
2017-09-09T14:41:42.104Z,77.54
2017-09-09T14:44:10.583Z,77.35
2017-09-09T14:46:39.063Z,77.07
2017-09-09T14:49:07.480Z,75.51
2017-09-09T14:51:35.927Z,75.15
2017-09-09T14:54:04.368Z,73.71
2017-09-09T14:56:32.887Z,73.20
2017-09-09T14:59:01.324Z,71.10
2017-09-09T15:01:29.854Z,71.27
2017-09-09T15:03:58.295Z,71.69
2017-09-09T15:06:27.535Z,70.67
2017-09-09T15:08:56.015Z,69.52
2017-09-09T15:11:24.448Z,69.97
2017-09-09T15:13:52.888Z,70.15
2017-09-09T15:16:21.362Z,71.27
2017-09-09T15:18:49.839Z,70.73
2017-09-09T15:21:18.328Z,70.74
2017-09-09T15:23:46.763Z,69.76
2017-09-09T15:26:15.963Z,69.65
2017-09-09T15:28:44.483Z,69.21
2017-09-09T15:31:12.967Z,69.38
2017-09-09T15:33:41.383Z,69.32
2017-09-09T15:36:09.824Z,69.17
2017-09-09T15:38:38.239Z,69.73
2017-09-09T15:41:06.691Z,69.93
2017-09-09T15:43:35.107Z,70.45
2017-09-09T15:46:03.544Z,70.69
2017-09-09T15:48:32.728Z,71.22
2017-09-09T15:51:01.231Z,71.77
2017-09-09T15:53:30.124Z,72.04
2017-09-09T15:55:58.569Z,72.66
2017-09-09T15:58:26.983Z,73.06
2017-09-09T16:00:55.468Z,73.27
2017-09-09T16:03:23.948Z,73.57
2017-09-09T16:05:52.432Z,73.43
2017-09-09T16:08:20.889Z,72.77
2017-09-09T16:10:50.119Z,72.75
2017-09-09T16:13:18.535Z,72.93
2017-09-09T16:15:47.078Z,73.20
2017-09-09T16:18:15.563Z,73.65
2017-09-09T16:20:44.047Z,73.98
2017-09-09T16:23:12.537Z,74.18
2017-09-09T16:25:41.008Z,74.14
2017-09-09T16:28:09.487Z,74.13
2017-09-09T16:30:37.972Z,73.80
2017-09-09T16:33:06.451Z,74.02
2017-09-09T16:35:34.872Z,73.38
2017-09-09T16:38:03.415Z,73.41
2017-09-09T16:40:31.831Z,73.29
2017-09-09T16:43:00.273Z,72.92
2017-09-09T16:45:28.696Z,72.93
2017-09-09T16:47:57.131Z,73.12
2017-09-09T16:50:25.619Z,73.51
2017-09-09T16:52:54.107Z,74.09
2017-09-09T16:55:22.591Z,73.98
2017-09-09T16:57:51.066Z,74.47
2017-09-09T17:00:19.546Z,74.56
2017-09-09T17:02:47.983Z,75.39
2017-09-09T17:05:16.511Z,75.37
2017-09-09T17:07:44.992Z,75.85
2017-09-09T17:10:13.475Z,75.52
2017-09-09T17:12:41.911Z,76.30
2017-09-09T17:15:10.323Z,76.09
2017-09-09T17:17:39.528Z,76.63
2017-09-09T17:20:08.707Z,76.23
2017-09-09T17:22:37.935Z,75.98
2017-09-09T17:25:06.419Z,77.82
2017-09-09T17:27:34.852Z,76.42
2017-09-09T17:30:03.383Z,76.87
2017-09-09T17:32:31.841Z,77.49
2017-09-09T17:35:01.064Z,77.29
2017-09-09T17:37:29.484Z,77.96
2017-09-09T17:39:57.919Z,77.25
2017-09-09T17:42:26.336Z,77.73
2017-09-09T17:44:54.883Z,76.49
2017-09-09T17:47:23.308Z,76.23
2017-09-09T17:49:51.853Z,75.91
2017-09-09T17:52:20.331Z,76.99
2017-09-09T17:54:48.815Z,77.86
2017-09-09T17:57:17.296Z,77.85
2017-09-09T17:59:45.783Z,78.88
2017-09-09T18:02:14.198Z,80.14
2017-09-09T18:04:42.752Z,80.03
2017-09-09T18:07:11.171Z,81.16
2017-09-09T18:09:39.617Z,80.72
2017-09-09T18:12:08.090Z,81.13
2017-09-09T18:14:36.528Z,81.60
2017-09-09T18:17:04.955Z,81.92
2017-09-09T18:19:33.436Z,81.69
2017-09-09T18:22:01.907Z,82.39
2017-09-09T18:24:30.401Z,82.24
2017-09-09T18:26:58.824Z,82.33
2017-09-09T18:29:27.360Z,83.06
2017-09-09T18:31:55.838Z,83.03
2017-09-09T18:34:24.284Z,82.68
2017-09-09T18:36:52.803Z,82.93
2017-09-09T18:39:21.246Z,82.70
2017-09-09T18:41:50.487Z,82.83
2017-09-09T18:44:18.967Z,82.97
2017-09-09T18:46:47.447Z,82.83
2017-09-09T18:49:15.936Z,82.52
2017-09-09T18:51:44.415Z,82.78
2017-09-09T18:54:12.900Z,82.50
2017-09-09T18:56:41.379Z,82.72
2017-09-09T18:59:09.819Z,82.57
2017-09-09T19:01:38.243Z,83.08
2017-09-09T19:04:06.728Z,83.15
2017-09-09T19:06:35.168Z,82.97
2017-09-09T19:09:04.351Z,82.61
2017-09-09T19:11:32.888Z,82.44
2017-09-09T19:14:01.303Z,82.32
2017-09-09T19:16:29.739Z,82.39
2017-09-09T19:18:58.232Z,82.11
2017-09-09T19:21:26.722Z,82.06
2017-09-09T19:23:55.187Z,82.32
2017-09-09T19:26:23.675Z,81.98
2017-09-09T19:28:52.100Z,81.95
2017-09-09T19:31:20.635Z,82.11
2017-09-09T19:33:49.116Z,82.27
2017-09-09T19:36:17.559Z,81.93
2017-09-09T19:38:46.079Z,81.76
2017-09-09T19:41:14.560Z,82.39
2017-09-09T19:43:43.055Z,82.67
2017-09-09T19:46:12.347Z,82.88
2017-09-09T19:48:40.763Z,82.92
2017-09-09T19:51:09.199Z,82.65
2017-09-09T19:53:37.629Z,83.01
2017-09-09T19:56:06.172Z,83.16
2017-09-09T19:58:34.592Z,83.30
2017-09-09T20:01:03.135Z,83.35
2017-09-09T20:03:31.616Z,83.51
2017-09-09T20:06:00.104Z,84.03
2017-09-09T20:08:28.587Z,83.94
2017-09-09T20:10:57.029Z,84.24
2017-09-09T20:13:26.267Z,84.50
2017-09-09T20:15:54.703Z,84.44
2017-09-09T20:18:23.231Z,84.71
2017-09-09T20:20:51.708Z,85.21
2017-09-09T20:23:20.123Z,85.39
2017-09-09T20:25:48.556Z,85.79
2017-09-09T20:28:16.987Z,85.84
2017-09-09T20:30:45.540Z,86.29
2017-09-09T20:33:14.006Z,86.39
2017-09-09T20:35:42.496Z,86.45
2017-09-09T20:38:10.979Z,86.36
2017-09-09T20:40:39.459Z,86.49
2017-09-09T20:43:07.875Z,86.15
2017-09-09T20:45:36.423Z,86.11
2017-09-09T20:48:04.845Z,86.15
2017-09-09T20:50:33.390Z,86.55
2017-09-09T20:53:01.809Z,86.40
2017-09-09T20:55:30.252Z,86.67
2017-09-09T20:57:58.668Z,86.49
2017-09-09T21:00:27.103Z,86.76
2017-09-09T21:02:56.315Z,86.47
2017-09-09T21:05:24.753Z,86.60
2017-09-09T21:07:53.181Z,86.47
2017-09-09T21:10:21.621Z,86.31
2017-09-09T21:12:50.855Z,85.63
2017-09-09T21:15:19.344Z,85.48
2017-09-09T21:17:47.819Z,85.31
2017-09-09T21:20:16.235Z,85.58
2017-09-09T21:22:44.671Z,85.54
2017-09-09T21:25:13.091Z,85.51
2017-09-09T21:27:41.643Z,85.72
2017-09-09T21:30:10.124Z,85.25
2017-09-09T21:32:38.618Z,85.25
2017-09-09T21:35:07.034Z,85.06
2017-09-09T21:37:35.479Z,84.98
2017-09-09T21:40:03.952Z,85.04
2017-09-09T21:42:32.395Z,84.84
2017-09-09T21:45:00.812Z,84.63
2017-09-09T21:47:29.246Z,85.12
2017-09-09T21:49:57.663Z,84.96
2017-09-09T21:52:26.979Z,85.17
2017-09-09T21:54:55.463Z,84.60
2017-09-09T21:57:23.907Z,84.83
2017-09-09T21:59:53.090Z,85.15
2017-09-09T22:02:21.625Z,84.97
2017-09-09T22:04:50.108Z,85.05
2017-09-09T22:07:18.550Z,84.92
2017-09-09T22:09:47.743Z,85.22
2017-09-09T22:12:16.267Z,85.38
2017-09-09T22:14:44.747Z,85.11
2017-09-09T22:17:13.227Z,86.12
2017-09-09T22:19:41.717Z,86.21
2017-09-09T22:22:10.195Z,85.78
2017-09-09T22:24:38.680Z,85.94
2017-09-09T22:27:07.140Z,85.99
2017-09-09T22:29:36.322Z,86.95
2017-09-09T22:32:05.532Z,86.19
2017-09-09T22:34:34.719Z,86.02
2017-09-09T22:37:03.956Z,86.08
2017-09-09T22:39:32.440Z,86.32
2017-09-09T22:42:00.884Z,85.88
2017-09-09T22:44:30.116Z,85.98
2017-09-09T22:46:58.555Z,86.40
2017-09-09T22:49:27.109Z,86.40
2017-09-09T22:51:55.540Z,86.47
2017-09-09T22:54:24.728Z,86.15
2017-09-09T22:56:53.945Z,87.07
2017-09-09T22:59:23.158Z,87.27
2017-09-09T23:01:51.669Z,87.19
2017-09-09T23:04:20.124Z,87.40
2017-09-09T23:06:48.587Z,86.97
2017-09-09T23:09:17.803Z,86.96
2017-09-09T23:11:46.227Z,87.50
2017-09-09T23:14:14.763Z,87.52
2017-09-09T23:16:43.252Z,87.42
2017-09-09T23:19:11.726Z,87.72
2017-09-09T23:21:40.207Z,87.38
2017-09-09T23:24:08.643Z,87.36
2017-09-09T23:26:37.180Z,87.24
2017-09-09T23:29:05.655Z,87.10
2017-09-09T23:31:34.072Z,87.18
2017-09-09T23:34:02.623Z,87.01
2017-09-09T23:36:31.047Z,86.93
2017-09-09T23:38:59.588Z,87.36
2017-09-09T23:41:28.076Z,87.54
2017-09-09T23:43:56.523Z,88.05
2017-09-09T23:46:25.716Z,88.08
2017-09-09T23:48:54.923Z,88.27
2017-09-09T23:51:24.115Z,88.46
2017-09-09T23:53:53.343Z,88.55
2017-09-09T23:56:21.828Z,88.21
2017-09-09T23:58:50.271Z,88.45
